KPHN/PHN METAR and TAF weather

Enter ICAO airport designator
Station Type Date Time Source
KPHN METAR 2021/08/05 04:35 UTC NOAA

KPHN 050435Z AUTO 00000KT 7SM CLR 15/14 A3014 RMK AO2


Station Type Date Time Source
KPHN Decoded METAR 2021/08/05 04:35 UTC NOAA

St. Clair County International, MI, United States (KPHN) 42-55N 082-32W
Aug 05, 2021 - 12:35 AM EDT / 2021.08.05 0435 UTC
Wind: Calm:0
Visibility: 7 mile(s):0
Sky conditions: clear
Temperature: 59 F (15 C)
Dew Point: 57 F (14 C)
Relative Humidity: 93%
Pressure (altimeter): 30.14 in. Hg (1020 hPa)
ob: KPHN 050435Z AUTO 00000KT 7SM CLR 15/14 A3014 RMK AO2
cycle: 4

Station Type Date Time Source
KPHN TAF UTC NOAA

Error!

Example: see airport list